Time;durP1;ratioP1;P1;durP2;ratioP2;P2;SDS_P1;SDS_P2;PMS_P1;PMS_P2;Temp;Humidity;BMP_temperature;BMP_pressure;BME280_temperature;BME280_humidity;BME280_pressure;Samples;Min_cycle;Max_cycle;Signal;HPM_P1;HPM_P2
2023/03/20 00:02:22;;;;;;;8.15;6.90;;;;;;;9.82;100.00;100520.09;4950481;28;20043;-94
2023/03/20 00:04:49;;;;;;;7.47;6.70;;;;;;;10.09;100.00;100589.50;4944868;28;20400;-92
2023/03/20 00:07:24;;;;;;;8.00;7.03;;;;;;;9.87;100.00;100549.00;4954274;28;20289;-90
2023/03/20 00:09:51;;;;;;;9.35;7.30;;;;;;;10.10;100.00;100588.56;4948743;28;20051;-88
2023/03/20 00:12:25;;;;;;;8.80;6.78;;;;;;;10.09;100.00;100568.31;4912252;29;20051;-92
2023/03/20 00:14:51;;;;;;;10.38;7.05;;;;;;;9.97;100.00;100552.13;4955671;28;20070;-86
2023/03/20 00:17:19;;;;;;;8.55;6.85;;;;;;;10.18;100.00;100589.16;4935880;29;20071;-90
2023/03/20 00:19:47;;;;;;;8.40;7.25;;;;;;;10.17;100.00;100597.13;4952269;28;20074;-90
2023/03/20 00:22:14;;;;;;;11.02;7.18;;;;;;;9.91;100.00;100555.91;4951987;28;20050;-91
2023/03/20 00:24:41;;;;;;;9.02;7.13;;;;;;;10.22;100.00;100597.84;4951448;28;20055;-85
2023/03/20 00:27:14;;;;;;;10.40;7.38;;;;;;;9.97;100.00;100555.63;4953745;28;20043;-89
2023/03/20 00:29:43;;;;;;;7.47;6.68;;;;;;;10.10;100.00;100561.25;4960831;28;20119;-92
2023/03/20 00:32:13;;;;;;;9.75;6.70;;;;;;;10.28;100.00;100608.16;4958781;28;20098;-89
2023/03/20 00:34:40;;;;;;;8.73;6.75;;;;;;;10.25;100.00;100602.97;4951384;28;20043;-91
2023/03/20 00:37:08;;;;;;;7.28;6.32;;;;;;;10.02;100.00;100574.81;4936813;29;20050;-90
2023/03/20 00:39:35;;;;;;;8.98;6.63;;;;;;;10.20;100.00;100602.34;4951072;28;20051;-91
2023/03/20 00:42:06;;;;;;;7.85;6.68;;;;;;;10.22;100.00;100607.56;4933164;28;21469;-91
2023/03/20 00:44:41;;;;;;;8.25;6.70;;;;;;;10.24;100.00;100603.03;4955012;28;20054;-91
2023/03/20 00:47:18;;;;;;;7.15;6.30;;;;;;;10.22;100.00;100608.44;4959326;28;20047;-88
2023/03/20 00:49:49;;;;;;;7.85;6.40;;;;;;;10.25;100.00;100602.13;4967342;28;20047;-86
2023/03/20 00:52:18;;;;;;;8.10;6.50;;;;;;;10.06;100.00;100570.25;4965286;28;20051;-87
2023/03/20 00:54:45;;;;;;;8.00;6.53;;;;;;;10.31;100.00;100617.75;4966009;28;20080;-86
2023/03/20 00:57:22;;;;;;;9.15;7.00;;;;;;;9.88;100.00;100550.72;4967987;28;20039;-85
2023/03/20 00:59:53;;;;;;;8.90;6.63;;;;;;;10.22;100.00;100613.72;4964407;28;20118;-86
2023/03/20 01:02:22;;;;;;;9.50;6.35;;;;;;;10.03;100.00;100586.25;4985004;28;20058;-85
2023/03/20 01:04:49;;;;;;;7.82;7.00;;;;;;;10.16;100.00;100608.63;4977505;28;20044;-92
2023/03/20 01:07:17;;;;;;;6.68;5.97;;;;;;;10.16;100.00;100613.94;4951811;28;20066;-93
2023/03/20 01:09:44;;;;;;;8.10;6.35;;;;;;;10.15;100.00;100601.63;4953690;28;20067;-85
2023/03/20 01:12:16;;;;;;;8.75;6.45;;;;;;;10.22;100.00;100613.72;4954311;28;20421;-87
2023/03/20 01:14:50;;;;;;;8.70;6.70;;;;;;;10.23;100.00;100617.22;4949464;28;20122;-88
2023/03/20 01:17:21;;;;;;;8.75;6.68;;;;;;;10.24;100.00;100610.97;4976343;28;20062;-86
2023/03/20 01:19:50;;;;;;;7.93;6.60;;;;;;;10.16;100.00;100609.50;4961674;28;20062;-87
2023/03/20 01:22:18;;;;;;;8.45;6.70;;;;;;;10.01;100.00;100594.25;4964289;28;20067;-88
2023/03/20 01:24:48;;;;;;;8.50;6.60;;;;;;;10.11;100.00;100607.97;4956518;28;20039;-91
2023/03/20 01:27:17;;;;;;;8.43;7.10;;;;;;;10.13;100.00;100608.75;4961867;28;20032;-86
2023/03/20 01:29:45;;;;;;;7.95;7.00;;;;;;;9.74;100.00;100545.16;4967857;28;20031;-86
2023/03/20 01:32:15;;;;;;;8.63;7.10;;;;;;;10.01;100.00;100588.97;4963426;28;20044;-89
2023/03/20 01:34:42;;;;;;;10.25;7.50;;;;;;;9.81;100.00;100560.69;4954109;28;20043;-92
2023/03/20 01:37:22;;;;;;;9.00;6.93;;;;;;;9.81;100.00;100576.56;4952643;28;20058;-92
2023/03/20 01:39:52;;;;;;;7.78;6.97;;;;;;;9.98;100.00;100590.88;4950669;28;20072;-91
2023/03/20 01:42:19;;;;;;;10.23;7.53;;;;;;;9.92;100.00;100586.69;4950403;28;20059;-93
2023/03/20 01:44:47;;;;;;;10.07;7.57;;;;;;;9.47;100.00;100532.09;4951468;28;20054;-84
2023/03/20 01:47:22;;;;;;;9.35;7.60;;;;;;;9.85;100.00;100614.31;4951876;28;20106;-89
2023/03/20 01:50:17;;;;;;;8.02;7.05;;;;;;;9.85;100.00;100617.84;4952846;28;20074;-87
2023/03/20 01:52:45;;;;;;;7.90;7.03;;;;;;;9.87;100.00;100611.63;4957924;28;20054;-92
2023/03/20 01:55:12;;;;;;;7.70;6.88;;;;;;;9.54;100.00;100576.81;4961698;28;20078;-86
2023/03/20 01:57:42;;;;;;;8.02;7.20;;;;;;;9.75;100.00;100619.13;4958662;28;20129;-90
2023/03/20 02:00:15;;;;;;;9.57;7.00;;;;;;;9.55;100.00;100578.53;4965068;28;20062;-91
2023/03/20 02:02:46;;;;;;;7.95;6.72;;;;;;;9.62;100.00;100586.16;4958489;28;20047;-91
2023/03/20 02:05:18;;;;;;;7.75;6.53;;;;;;;9.84;100.00;100624.03;4957687;28;20050;-92
2023/03/20 02:07:53;;;;;;;8.32;5.93;;;;;;;9.72;100.00;100605.16;4954542;28;20050;-91
2023/03/20 02:10:20;;;;;;;7.88;6.63;;;;;;;9.84;100.00;100624.03;4949033;28;20047;-91
2023/03/20 02:12:47;;;;;;;7.88;6.53;;;;;;;9.86;100.00;100623.97;4955658;28;20047;-87
2023/03/20 02:15:16;;;;;;;7.78;6.03;;;;;;;9.63;100.00;100579.06;4954500;28;20048;-92
2023/03/20 02:17:44;;;;;;;8.52;6.32;;;;;;;9.78;100.00;100607.56;4956401;28;20054;-94
2023/03/20 02:20:21;;;;;;;9.70;6.80;;;;;;;9.72;100.00;100628.97;4960511;28;20058;-90
2023/03/20 02:23:12;;;;;;;9.50;7.03;;;;;;;9.65;100.00;100632.75;4973820;28;20081;-86
2023/03/20 02:25:48;;;;;;;8.68;6.57;;;;;;;9.62;100.00;100627.59;4959341;28;20105;-89
2023/03/20 02:28:43;;;;;;;8.90;6.50;;;;;;;9.66;100.00;100634.50;4937972;29;20611;-91
2023/03/20 02:31:49;;;;;;;9.05;6.53;;;;;;;9.72;100.00;100635.13;4967312;28;20079;-85
2023/03/20 02:34:28;;;;;;;8.38;6.32;;;;;;;9.67;100.00;100637.06;4968972;28;20035;-84
2023/03/20 02:37:34;;;;;;;8.40;6.80;;;;;;;9.72;100.00;100631.63;4966438;28;20043;-86
2023/03/20 02:40:21;;;;;;;8.05;6.32;;;;;;;9.66;100.00;100630.06;4969222;28;20069;-85
2023/03/20 02:43:11;;;;;;;7.68;6.13;;;;;;;9.73;100.00;100638.63;4973682;28;20152;-85
2023/03/20 02:46:01;;;;;;;8.93;6.73;;;;;;;9.78;100.00;100639.28;4970577;28;20024;-84
2023/03/20 02:48:47;;;;;;;8.35;6.45;;;;;;;9.66;100.00;100622.13;4969403;28;20475;-85
2023/03/20 02:51:23;;;;;;;9.00;6.65;;;;;;;9.78;100.00;100634.84;4975554;28;20045;-87
2023/03/20 02:54:17;;;;;;;11.13;6.88;;;;;;;9.71;100.00;100645.75;4973265;28;20028;-84
2023/03/20 02:57:06;;;;;;;9.00;6.97;;;;;;;9.75;100.00;100636.78;4967373;28;20059;-90
2023/03/20 02:59:58;;;;;;;10.48;7.20;;;;;;;9.77;100.00;100643.72;4979342;28;20062;-86
2023/03/20 03:02:39;;;;;;;9.13;7.32;;;;;;;9.80;100.00;100653.31;5009992;28;20085;-86
2023/03/20 03:05:13;;;;;;;9.07;7.10;;;;;;;9.69;100.00;100637.88;4984142;28;20034;-84
2023/03/20 03:07:49;;;;;;;10.00;7.50;;;;;;;9.68;100.00;100635.28;4995142;28;20054;-85
2023/03/20 03:10:26;;;;;;;9.65;7.40;;;;;;;9.41;100.00;100598.44;4994423;28;20094;-85
2023/03/20 03:12:55;;;;;;;8.52;7.07;;;;;;;9.35;100.00;100595.16;4994560;28;20070;-84
2023/03/20 03:15:31;;;;;;;12.17;8.10;;;;;;;9.33;100.00;100600.50;5012005;28;20058;-88
2023/03/20 03:18:01;;;;;;;10.65;7.43;;;;;;;9.53;100.00;100649.09;4992668;28;20482;-92
2023/03/20 03:20:31;;;;;;;10.70;7.87;;;;;;;9.45;100.00;100650.25;4988834;28;20213;-87
2023/03/20 03:22:58;;;;;;;10.40;8.07;;;;;;;9.17;100.00;100588.81;5006407;28;20046;-85
2023/03/20 03:25:31;;;;;;;10.13;8.70;;;;;;;9.25;100.00;100599.97;4985610;28;20051;-90
2023/03/20 03:28:18;;;;;;;10.30;7.43;;;;;;;9.55;100.00;100634.91;4981285;28;20042;-89
2023/03/20 03:30:45;;;;;;;9.73;7.65;;;;;;;9.43;100.00;100611.63;5005313;28;20038;-86
2023/03/20 03:33:28;;;;;;;11.40;8.10;;;;;;;9.50;100.00;100621.00;4995060;28;20042;-85
2023/03/20 03:36:08;;;;;;;9.77;7.50;;;;;;;9.30;100.00;100584.78;4991291;28;20034;-87
2023/03/20 03:38:59;;;;;;;10.98;8.10;;;;;;;9.60;100.00;100634.75;4994105;28;20072;-88
2023/03/20 03:41:36;;;;;;;10.02;8.13;;;;;;;9.59;100.00;100627.72;4987009;28;20053;-85
2023/03/20 03:44:10;;;;;;;14.63;8.85;;;;;;;9.66;100.00;100650.34;4991600;28;20122;-87
2023/03/20 03:46:52;;;;;;;12.18;9.10;;;;;;;9.07;100.00;100576.88;4990109;28;20054;-88
2023/03/20 03:49:34;;;;;;;14.18;9.75;;;;;;;9.37;100.00;100659.41;5008384;28;20101;-91
2023/03/20 03:52:08;;;;;;;12.50;9.65;;;;;;;9.24;100.00;100661.66;5001658;28;20042;-92
2023/03/20 03:54:42;;;;;;;12.45;9.13;;;;;;;9.04;100.00;100640.38;4968104;28;20046;-90
2023/03/20 03:57:11;;;;;;;13.10;8.48;;;;;;;9.03;100.00;100650.09;4977526;28;20285;-93
2023/03/20 03:59:42;;;;;;;13.45;9.93;;;;;;;9.09;100.00;100664.88;4981616;28;20054;-92
2023/03/20 04:02:11;;;;;;;13.77;9.63;;;;;;;9.14;100.00;100669.03;4998057;28;20145;-92
2023/03/20 04:04:42;;;;;;;13.45;9.80;;;;;;;8.90;100.00;100632.09;4984406;28;20069;-89
2023/03/20 04:07:12;;;;;;;14.10;9.70;;;;;;;9.17;100.00;100673.34;4979784;28;20066;-92
2023/03/20 04:09:39;;;;;;;13.32;9.50;;;;;;;9.26;100.00;100666.88;4979017;28;20052;-88
2023/03/20 04:12:43;;;;;;;12.88;9.43;;;;;;;8.91;100.00;100596.84;5005596;28;20053;-93
2023/03/20 04:15:13;;;;;;;13.77;9.57;;;;;;;9.19;100.00;100626.59;4998688;28;20031;-86
2023/03/20 04:17:41;;;;;;;13.02;9.75;;;;;;;9.48;100.00;100667.78;4983276;28;20110;-91
2023/03/20 04:20:11;;;;;;;13.23;9.23;;;;;;;9.36;100.00;100641.81;4995941;28;20154;-91
2023/03/20 04:22:39;;;;;;;13.88;10.07;;;;;;;9.56;100.00;100668.38;4997047;28;20057;-92
2023/03/20 04:25:09;;;;;;;13.95;10.35;;;;;;;9.31;100.00;100630.56;4979498;28;20050;-87
2023/03/20 04:27:35;;;;;;;14.23;10.10;;;;;;;9.26;100.00;100633.41;4980594;28;20136;-90
2023/03/20 04:30:06;;;;;;;13.88;10.38;;;;;;;9.55;100.00;100681.66;4985639;28;20133;-87
2023/03/20 04:32:35;;;;;;;15.52;10.95;;;;;;;9.48;100.00;100684.50;5005377;28;20481;-87
2023/03/20 04:35:02;;;;;;;14.90;10.75;;;;;;;9.34;100.00;100655.09;4988962;28;20053;-90
2023/03/20 04:37:29;;;;;;;14.00;9.95;;;;;;;9.54;100.00;100686.06;4986163;28;20049;-89
2023/03/20 04:39:57;;;;;;;14.45;10.30;;;;;;;9.50;100.00;100668.59;5007546;28;20026;-86
2023/03/20 04:42:27;;;;;;;14.77;10.38;;;;;;;9.56;100.00;100692.16;5010331;28;20045;-85
2023/03/20 04:44:54;;;;;;;16.75;11.27;;;;;;;9.46;100.00;100688.13;4988487;28;20049;-90
2023/03/20 04:47:22;;;;;;;14.57;10.80;;;;;;;9.26;100.00;100674.81;5001654;28;21014;-92
2023/03/20 04:49:50;;;;;;;16.80;11.40;;;;;;;9.39;100.00;100698.09;5001727;28;20483;-89
2023/03/20 04:52:18;;;;;;;18.63;11.23;;;;;;;9.06;100.00;100649.13;4978415;28;20074;-89
2023/03/20 04:54:49;;;;;;;19.38;12.02;;;;;;;9.14;100.00;100674.31;4997343;28;20046;-94
2023/03/20 04:57:15;;;;;;;17.58;11.95;;;;;;;9.05;100.00;100657.97;4973167;28;20077;-89
2023/03/20 04:59:48;;;;;;;20.05;11.57;;;;;;;9.30;100.00;100703.69;4976541;28;20039;-90
2023/03/20 05:02:16;;;;;;;16.08;11.48;;;;;;;9.08;100.00;100657.84;4997127;28;20050;-94
2023/03/20 05:04:43;;;;;;;17.67;12.45;;;;;;;9.18;100.00;100664.50;4996429;28;20061;-88
2023/03/20 05:07:10;;;;;;;16.27;11.60;;;;;;;9.11;100.00;100663.03;4995946;28;20053;-92
2023/03/20 05:09:37;;;;;;;16.85;12.18;;;;;;;8.78;100.00;100612.28;4979968;28;20093;-95
2023/03/20 05:12:11;;;;;;;20.63;12.52;;;;;;;9.14;100.00;100668.19;4976451;28;20098;-88
2023/03/20 05:14:39;;;;;;;17.13;12.00;;;;;;;9.30;100.00;100687.84;4987603;28;20034;-85
2023/03/20 05:17:14;;;;;;;17.65;12.35;;;;;;;8.96;100.00;100623.97;5001215;28;20055;-86
2023/03/20 05:19:43;;;;;;;25.25;13.70;;;;;;;9.27;100.00;100658.03;4982848;28;20035;-87
2023/03/20 05:22:12;;;;;;;18.95;13.27;;;;;;;9.25;100.00;100638.75;4965555;28;20066;-89
2023/03/20 05:24:39;;;;;;;20.63;14.02;;;;;;;9.54;100.00;100677.28;5004131;28;20050;-94
2023/03/20 05:27:08;;;;;;;20.60;13.35;;;;;;;9.37;100.00;100639.13;4966199;28;20049;-87
2023/03/20 05:29:35;;;;;;;24.80;14.90;;;;;;;9.69;100.00;100696.06;4984877;28;20061;-87
2023/03/20 05:32:03;;;;;;;28.05;16.27;;;;;;;9.66;100.00;100668.88;4991543;28;20042;-91
2023/03/20 05:34:34;;;;;;;29.13;17.00;;;;;;;9.59;100.00;100633.03;5011642;28;20069;-86
2023/03/20 05:37:06;;;;;;;28.13;16.73;;;;;;;9.57;100.00;100619.00;4974802;28;20042;-88
2023/03/20 05:39:38;;;;;;;30.63;16.88;;;;;;;9.56;100.00;100623.44;4994994;28;20047;-90
2023/03/20 05:42:11;;;;;;;31.65;17.90;;;;;;;9.69;100.00;100643.16;4991970;28;20073;-93
2023/03/20 05:44:38;;;;;;;31.52;17.95;;;;;;;9.71;100.00;100658.97;4980893;28;20042;-88
2023/03/20 05:47:06;;;;;;;31.80;17.55;;;;;;;9.29;100.00;100596.25;4991671;28;20051;-89
2023/03/20 05:49:34;;;;;;;29.65;17.98;;;;;;;9.76;100.00;100657.00;4982030;28;20069;-91
2023/03/20 05:52:07;;;;;;;34.60;19.10;;;;;;;9.92;100.00;100687.19;4983621;28;20074;-92
2023/03/20 05:54:34;;;;;;;33.78;18.45;;;;;;;9.99;100.00;100688.69;4983467;28;20114;-92
2023/03/20 05:57:02;;;;;;;35.40;19.90;;;;;;;9.69;100.00;100648.47;4980043;28;20049;-94
2023/03/20 05:59:29;;;;;;;37.00;20.10;;;;;;;9.98;100.00;100692.25;5000659;28;20073;-92
2023/03/20 06:02:10;;;;;;;38.17;21.58;;;;;;;10.05;100.00;100699.06;5001641;28;20078;-92
2023/03/20 06:04:38;;;;;;;39.70;22.25;;;;;;;9.91;100.00;100674.94;4999704;28;20065;-93
2023/03/20 06:07:21;;;;;;;41.17;21.75;;;;;;;9.57;100.00;100619.88;4986310;28;20081;-92
2023/03/20 06:09:50;;;;;;;39.70;21.90;;;;;;;10.03;100.00;100692.94;5011686;28;20142;-88
2023/03/20 06:12:37;;;;;;;43.50;21.92;;;;;;;9.69;100.00;100637.03;4999158;28;20054;-89
2023/03/20 06:15:10;;;;;;;45.95;22.73;;;;;;;10.00;100.00;100694.84;5006558;28;20151;-91
2023/03/20 06:17:37;;;;;;;44.03;23.15;;;;;;;9.94;100.00;100677.44;5002137;28;20076;-92
2023/03/20 06:20:05;;;;;;;43.08;23.42;;;;;;;9.80;100.00;100650.66;4980397;28;20050;-93
2023/03/20 06:22:35;;;;;;;43.35;23.08;;;;;;;10.00;100.00;100673.69;4976618;28;20043;-93
2023/03/20 06:25:07;;;;;;;40.53;22.65;;;;;;;10.16;100.00;100703.91;4994454;28;20049;-92
2023/03/20 06:27:37;;;;;;;41.25;22.00;;;;;;;9.68;100.00;100617.66;4979391;28;20074;-92
2023/03/20 06:30:05;;;;;;;41.35;23.05;;;;;;;10.19;100.00;100709.97;4980136;28;20046;-93
2023/03/20 06:32:33;;;;;;;41.25;22.65;;;;;;;10.21;100.00;100709.91;5000608;28;20045;-91
2023/03/20 06:35:12;;;;;;;;;;;;;;;10.15;100.00;100702.19;4976307;28;20066;-91
2023/03/20 06:37:45;;;;;;;46.88;24.00;;;;;;;9.95;100.00;100689.72;4977468;28;19928;-90
2023/03/20 06:40:27;;;;;;;43.30;23.83;;;;;;;9.80;100.00;100685.06;4986699;28;20053;-92
2023/03/20 06:42:56;;;;;;;46.40;24.45;;;;;;;9.94;100.00;100719.75;5005799;28;20044;-88
2023/03/20 06:45:24;;;;;;;45.95;25.15;;;;;;;9.52;100.00;100644.75;5004903;28;20050;-91
2023/03/20 06:47:53;;;;;;;46.33;24.92;;;;;;;10.03;100.00;100724.72;5009718;28;20041;-88
2023/03/20 06:50:20;;;;;;;51.25;27.13;;;;;;;9.91;100.00;100711.09;5007628;28;20043;-92
2023/03/20 06:52:47;;;;;;;51.75;27.38;;;;;;;9.98;100.00;100728.44;4987058;28;20133;-91
2023/03/20 06:55:28;;;;;;;48.55;25.05;;;;;;;9.84;100.00;100692.81;4990330;28;20038;-91
2023/03/20 06:57:56;;;;;;;49.35;26.20;;;;;;;9.88;100.00;100685.63;4980445;28;20042;-92
2023/03/20 07:00:27;;;;;;;52.45;28.95;;;;;;;9.99;100.00;100687.84;4979630;28;20065;-91
2023/03/20 07:05:54;;;;;;;55.25;29.58;;;;;;;10.08;100.00;100664.50;4890227;29;20885;-93
2023/03/20 07:08:24;;;;;;;50.53;28.77;;;;;;;10.09;100.00;100645.06;4884621;29;20069;-90
2023/03/20 07:10:54;;;;;;;54.47;29.35;;;;;;;10.45;100.00;100711.53;4855000;29;20147;-92
2023/03/20 07:13:23;;;;;;;54.63;28.38;;;;;;;10.22;100.00;100676.38;4889595;29;20059;-90
2023/03/20 07:15:57;;;;;;;60.42;31.30;;;;;;;10.42;100.00;100706.38;4872555;29;20045;-91
2023/03/20 07:18:39;;;;;;;54.83;28.15;;;;;;;10.26;100.00;100678.81;4893321;29;20130;-90
2023/03/20 07:21:15;;;;;;;50.63;26.75;;;;;;;10.40;100.00;100718.81;4877176;29;20062;-91
2023/03/20 07:23:45;;;;;;;51.97;28.30;;;;;;;10.26;100.00;100710.56;4889010;29;20045;-92
2023/03/20 07:26:13;;;;;;;50.95;27.80;;;;;;;9.98;100.00;100670.25;4886618;29;20048;-91
2023/03/20 07:28:40;;;;;;;51.28;27.92;;;;;;;10.48;100.00;100744.97;4868903;29;20056;-94
2023/03/20 07:31:19;;;;;;;46.55;25.50;;;;;;;10.50;100.00;100732.53;4897474;29;20028;-88
2023/03/20 07:33:48;;;;;;;46.97;25.33;;;;;;;10.05;100.00;100642.63;4899130;29;20041;-91
2023/03/20 07:36:19;;;;;;;49.78;26.20;;;;;;;10.69;100.00;100748.53;4879837;29;20051;-90
2023/03/20 07:38:48;;;;;;;44.42;25.08;;;;;;;10.46;100.00;100733.59;4897680;29;20109;-87
2023/03/20 07:41:16;;;;;;;49.90;25.60;;;;;;;10.50;100.00;100748.44;4887247;29;20032;-91
2023/03/20 07:43:45;;;;;;;45.78;25.42;;;;;;;10.25;100.00;100703.53;4900063;29;20094;-92
2023/03/20 07:46:14;;;;;;;44.88;25.92;;;;;;;10.57;100.00;100751.66;4902897;29;20055;-90
2023/03/20 07:48:43;;;;;;;46.30;25.52;;;;;;;10.24;100.00;100685.09;4901750;29;20055;-88
2023/03/20 07:51:10;;;;;;;44.40;24.55;;;;;;;10.45;100.00;100710.69;4885211;29;20037;-90
2023/03/20 07:53:39;;;;;;;44.92;23.55;;;;;;;10.36;100.00;100700.47;4884265;29;20037;-91
2023/03/20 07:56:08;;;;;;;42.00;23.75;;;;;;;10.52;100.00;100715.69;4896814;29;20033;-87
2023/03/20 07:58:41;;;;;;;41.03;23.67;;;;;;;10.33;100.00;100671.50;4888959;29;20063;-89
2023/03/20 08:01:13;;;;;;;40.10;23.10;;;;;;;10.82;100.00;100763.84;4892489;29;20063;-90
2023/03/20 08:03:40;;;;;;;46.03;23.67;;;;;;;10.50;100.00;100717.53;4894754;29;20052;-92
2023/03/20 08:06:09;;;;;;;42.30;24.20;;;;;;;10.34;100.00;100697.03;4887803;29;20062;-89
2023/03/20 08:08:41;;;;;;;44.03;23.30;;;;;;;10.62;100.00;100755.88;4891893;29;20060;-93
2023/03/20 08:11:08;;;;;;;42.28;24.15;;;;;;;10.71;100.00;100763.41;4888192;29;20068;-91
2023/03/20 08:13:38;;;;;;;43.05;22.85;;;;;;;10.80;100.00;100756.88;4904959;29;20061;-92
2023/03/20 08:16:07;;;;;;;44.72;24.73;;;;;;;10.84;100.00;100772.59;4892567;29;20044;-91
2023/03/20 08:18:37;;;;;;;40.67;22.60;;;;;;;10.52;100.00;100728.91;4901888;29;20045;-90
2023/03/20 08:21:08;;;;;;;47.55;25.75;;;;;;;10.58;100.00;100733.06;4887631;29;20079;-92
2023/03/20 08:23:47;;;;;;;45.38;24.23;;;;;;;10.67;100.00;100775.09;4892551;29;20108;-94
2023/03/20 08:26:19;;;;;;;42.33;23.73;;;;;;;10.06;100.00;100697.25;4893179;29;20069;-93
2023/03/20 08:28:59;;;;;;;42.75;24.17;;;;;;;10.46;100.00;100784.75;4910532;29;20060;-91
2023/03/20 08:31:26;;;;;;;45.55;24.00;;;;;;;10.31;100.00;100737.72;4897219;29;20065;-92
2023/03/20 08:33:55;;;;;;;44.35;24.23;;;;;;;10.72;100.00;100783.69;4896405;29;20109;-91
2023/03/20 08:36:29;;;;;;;49.22;25.42;;;;;;;10.27;100.00;100706.13;4893186;29;20080;-92
2023/03/20 08:38:56;;;;;;;51.53;26.70;;;;;;;10.43;100.00;100739.00;4906020;29;20058;-93
2023/03/20 08:41:32;;;;;;;53.85;27.17;;;;;;;10.80;100.00;100794.84;4891918;29;20059;-91
2023/03/20 08:44:06;;;;;;;52.70;29.00;;;;;;;10.66;100.00;100757.47;4887772;29;20052;-92
2023/03/20 08:46:43;;;;;;;59.80;29.85;;;;;;;10.81;100.00;100798.34;4890891;29;20120;-92
2023/03/20 08:49:12;;;;;;;59.95;29.30;;;;;;;10.71;100.00;100776.66;4908353;29;20062;-90
2023/03/20 08:51:41;;;;;;;55.80;29.30;;;;;;;10.81;100.00;100783.31;4901387;29;20047;-91
2023/03/20 08:54:10;;;;;;;55.67;28.17;;;;;;;10.92;100.00;100787.28;4869365;29;20084;-92
2023/03/20 08:56:51;;;;;;;58.72;29.45;;;;;;;10.86;100.00;100797.22;4881772;29;20459;-91
2023/03/20 08:59:21;;;;;;;58.47;30.20;;;;;;;10.57;100.00;100771.06;4902070;29;20120;-93
2023/03/20 09:02:12;;;;;;;58.00;30.25;;;;;;;10.60;100.00;100802.72;4896711;29;20179;-90
2023/03/20 09:04:42;;;;;;;56.95;29.58;;;;;;;10.40;100.00;100762.94;4901016;29;20068;-93
2023/03/20 09:07:09;;;;;;;61.05;30.13;;;;;;;10.54;100.00;100772.09;4902864;29;20044;-91
2023/03/20 09:09:40;;;;;;;57.03;29.23;;;;;;;10.72;100.00;100775.72;4901193;29;20056;-92
2023/03/20 09:12:09;;;;;;;52.83;27.83;;;;;;;10.84;100.00;100767.31;4899065;29;20056;-88
2023/03/20 09:14:39;;;;;;;64.45;30.73;;;;;;;11.05;100.00;100796.44;4898848;29;20045;-91
2023/03/20 09:17:07;;;;;;;54.92;29.40;;;;;;;10.71;100.00;100751.97;4901891;29;20487;-92
2023/03/20 09:19:47;;;;;;;60.80;30.02;;;;;;;10.94;100.00;100799.56;4888035;29;20041;-92
2023/03/20 09:22:16;;;;;;;57.67;28.88;;;;;;;11.02;100.00;100801.91;4879497;29;20044;-90
2023/03/20 09:25:06;;;;;;;56.85;29.13;;;;;;;11.16;100.00;100788.91;4897324;29;20482;-91
2023/03/20 09:27:33;;;;;;;57.30;29.23;;;;;;;11.16;100.00;100773.00;4907598;29;20040;-91
2023/03/20 09:30:04;;;;;;;56.23;28.80;;;;;;;11.39;100.00;100799.38;4904257;29;20040;-91
2023/03/20 09:32:34;;;;;;;55.90;29.58;;;;;;;11.61;100.00;100812.56;4909353;29;20051;-89
2023/03/20 09:35:03;;;;;;;55.67;29.60;;;;;;;11.67;100.00;100787.53;4889316;29;20056;-91
2023/03/20 09:37:36;;;;;;;54.80;29.27;;;;;;;12.00;100.00;100812.56;4894089;29;20139;-88
2023/03/20 09:40:06;;;;;;;50.15;26.73;;;;;;;12.28;100.00;100794.38;4905684;29;20056;-89
2023/03/20 09:42:56;;;;;;;50.33;26.67;;;;;;;12.81;100.00;100792.72;4905418;29;20052;-90
2023/03/20 09:45:59;;;;;;;50.47;26.70;;;;;;;13.48;100.00;100790.16;4899438;29;20060;-92
2023/03/20 09:49:09;;;;;;;45.97;25.75;;;;;;;13.70;100.00;100800.53;4860514;29;20033;-91
2023/03/20 09:51:57;;;;;;;44.05;25.45;;;;;;;13.80;100.00;100783.13;4904942;29;20037;-90
2023/03/20 09:54:44;;;;;;;41.10;23.85;;;;;;;13.84;100.00;100805.13;4915890;29;20103;-90
2023/03/20 09:57:24;;;;;;;43.40;23.33;;;;;;;13.51;100.00;100768.72;4897685;29;20053;-90
2023/03/20 10:00:02;;;;;;;41.10;24.27;;;;;;;13.66;100.00;100807.84;4904807;29;20025;-89
2023/03/20 10:03:01;;;;;;;41.92;24.17;;;;;;;13.54;100.00;100788.97;4910853;29;20044;-92
2023/03/20 10:05:47;;;;;;;36.58;22.25;;;;;;;13.49;100.00;100802.53;4902690;29;20071;-90
2023/03/20 10:08:20;;;;;;;38.30;23.55;;;;;;;13.01;100.00;100789.94;4897122;29;20048;-91
2023/03/20 10:11:01;;;;;;;44.78;24.48;;;;;;;13.03;100.00;100793.38;4894861;29;20109;-92
2023/03/20 10:13:43;;;;;;;42.05;24.60;;;;;;;13.07;100.00;100812.66;4896023;29;20056;-92
2023/03/20 10:16:47;;;;;;;39.33;24.03;;;;;;;12.98;100.00;100811.34;4900627;29;20079;-91
2023/03/20 10:19:47;;;;;;;37.10;21.63;;;;;;;13.23;100.00;100792.38;4888371;29;20084;-91
2023/03/20 10:22:31;;;;;;;35.60;20.50;;;;;;;13.52;100.00;100799.72;4902001;29;20045;-88
2023/03/20 10:25:21;;;;;;;31.30;19.27;;;;;;;13.51;100.00;100805.97;4903148;29;20091;-92
2023/03/20 10:28:03;;;;;;;33.88;19.85;;;;;;;13.48;100.00;100795.50;4902824;29;20134;-89
2023/03/20 10:30:37;;;;;;;30.02;19.38;;;;;;;13.56;100.00;100781.78;4900819;29;20057;-92
2023/03/20 10:33:28;;;;;;;33.95;20.52;;;;;;;13.79;100.00;100796.53;4901460;29;20049;-90
2023/03/20 10:36:45;;;;;;;34.10;19.88;;;;;;;13.75;100.00;100800.28;4886617;29;20370;-93
2023/03/20 10:39:18;;;;;;;30.98;19.17;;;;;;;13.05;100.00;100764.91;4900470;29;20055;-90
2023/03/20 10:41:53;;;;;;;31.13;19.65;;;;;;;13.02;100.00;100748.25;4881845;29;20078;-91
2023/03/20 10:44:42;;;;;;;30.35;18.65;;;;;;;13.60;100.00;100797.50;4903526;29;20076;-91
2023/03/20 10:47:17;;;;;;;30.02;17.77;;;;;;;13.64;100.00;100801.72;4893841;29;20040;-90
2023/03/20 10:49:56;;;;;;;27.95;16.65;;;;;;;13.07;100.00;100767.47;4891035;29;20162;-91
2023/03/20 10:52:31;;;;;;;29.27;17.38;;;;;;;13.10;100.00;100785.94;4887423;29;20063;-91
2023/03/20 10:55:22;;;;;;;27.15;16.40;;;;;;;13.47;100.00;100788.44;4896506;29;20040;-89
2023/03/20 10:58:04;;;;;;;25.90;16.02;;;;;;;13.80;99.95;100771.63;4906186;29;20517;-93
2023/03/20 11:00:36;;;;;;;23.85;14.50;;;;;;;14.07;96.13;100783.41;4909459;29;20049;-89
2023/03/20 11:03:26;;;;;;;28.25;15.65;;;;;;;14.15;91.24;100743.06;4913169;29;20040;-91
2023/03/20 11:06:06;;;;;;;22.38;14.05;;;;;;;14.43;87.59;100763.69;4916220;29;20065;-90
2023/03/20 11:08:39;;;;;;;21.30;12.95;;;;;;;14.28;85.57;100742.28;4902933;29;20139;-91
2023/03/20 11:11:08;;;;;;;18.70;12.38;;;;;;;14.07;81.70;100705.34;4914744;29;20115;-92
2023/03/20 11:13:40;;;;;;;19.38;12.45;;;;;;;14.11;85.32;100770.81;4910538;29;20115;-91
2023/03/20 11:16:17;;;;;;;20.48;12.63;;;;;;;13.83;87.65;100759.00;4916323;29;20028;-91
2023/03/20 11:18:53;;;;;;;19.90;12.38;;;;;;;14.19;88.94;100773.88;4913623;29;20037;-90
2023/03/20 11:21:55;;;;;;;20.38;12.15;;;;;;;14.57;86.24;100745.09;4982163;23;20075;-92
2023/03/20 11:24:44;;;;;;;20.63;12.90;;;;;;;14.71;82.61;100750.50;4949475;28;20047;-92
2023/03/20 11:27:23;;;;;;;19.90;12.10;;;;;;;14.53;84.01;100760.41;4965498;28;20055;-90
2023/03/20 11:30:03;;;;;;;19.55;12.90;;;;;;;13.88;85.63;100684.19;4981236;28;20035;-89
2023/03/20 11:32:34;;;;;;;19.00;12.07;;;;;;;14.42;83.38;100717.53;4917360;28;20066;-91
2023/03/20 11:35:25;;;;;;;19.40;12.65;;;;;;;14.92;80.81;100751.91;4975316;28;20106;-91
2023/03/20 11:38:07;;;;;;;21.25;12.27;;;;;;;15.16;80.52;100744.22;4942350;29;20046;-91
2023/03/20 11:40:38;;;;;;;18.48;11.80;;;;;;;15.28;78.43;100721.28;4967954;28;20041;-90
2023/03/20 11:43:23;;;;;;;18.05;12.43;;;;;;;15.76;74.84;100738.75;4969536;28;20050;-90
2023/03/20 11:45:58;;;;;;;19.30;12.15;;;;;;;15.56;75.64;100673.31;4966578;28;20049;-90
2023/03/20 11:48:47;;;;;;;18.92;11.07;;;;;;;15.90;69.74;100685.31;4972076;28;20031;-88